Time,TemperatureF,DewpointF,PressureIn,WindDirection,WindDirectionDegrees,WindSpeedMPH,WindSpeedGustMPH,Humidity,HourlyPrecipIn,Conditions,Clouds,dailyrainin,SoftwareType,DateUTC
2013-08-23 00:00:00,60.7,58.7,30.16,NNW,344,0.0,0.0,93,0.00,,,0.00,Wunderground v.1.15,2013-08-23 05:00:00,
2013-08-23 00:05:00,60.6,58.6,30.16,NNW,344,0.0,0.0,93,0.00,,,0.00,Wunderground v.1.15,2013-08-23 05:05:00,
2013-08-23 00:20:00,60.4,58.4,30.16,NNW,344,0.0,0.0,93,0.00,,,0.00,Wunderground v.1.15,2013-08-23 05:20:00,
2013-08-23 00:25:00,60.4,58.4,30.17,NNW,344,0.0,0.0,93,0.00,,,0.00,Wunderground v.1.15,2013-08-23 05:25:00,
2013-08-23 00:30:00,60.3,58.3,30.17,NNW,344,0.0,0.0,93,0.00,,,0.00,Wunderground v.1.15,2013-08-23 05:30:00,
2013-08-23 00:35:00,60.2,58.2,30.16,NNW,344,0.0,0.0,93,0.00,,,0.00,Wunderground v.1.15,2013-08-23 05:35:00,
2013-08-23 00:40:00,60.1,58.1,30.17,NNW,344,0.0,0.0,93,0.00,,,0.00,Wunderground v.1.15,2013-08-23 05:40:00,
2013-08-23 00:45:00,60.0,58.0,30.17,NNW,344,0.0,0.0,93,0.00,,,0.00,Wunderground v.1.15,2013-08-23 05:45:00,
2013-08-23 00:50:00,59.8,57.8,30.17,NNW,344,0.0,0.0,93,0.00,,,0.00,Wunderground v.1.15,2013-08-23 05:50:00,
2013-08-23 01:00:00,59.5,57.5,30.17,NNW,344,0.0,0.0,93,0.00,,,0.00,Wunderground v.1.15,2013-08-23 06:00:00,
2013-08-23 01:05:00,59.5,57.5,30.17,NNW,344,0.0,0.0,93,0.00,,,0.00,Wunderground v.1.15,2013-08-23 06:05:00,
2013-08-23 01:15:00,59.5,57.5,30.17,NNW,344,0.0,0.0,93,0.00,,,0.00,Wunderground v.1.15,2013-08-23 06:15:00,
2013-08-23 01:20:00,59.4,57.4,30.17,NNW,344,0.0,0.0,93,0.00,,,0.00,Wunderground v.1.15,2013-08-23 06:20:00,
2013-08-23 01:25:00,59.3,57.3,30.17,NNW,344,0.0,0.0,93,0.00,,,0.00,Wunderground v.1.15,2013-08-23 06:25:00,
2013-08-23 01:30:00,59.1,57.1,30.17,NNW,344,0.0,0.0,93,0.00,,,0.00,Wunderground v.1.15,2013-08-23 06:30:00,
2013-08-23 01:35:00,59.1,57.1,30.17,NNW,344,0.0,0.0,93,0.00,,,0.00,Wunderground v.1.15,2013-08-23 06:35:00,
2013-08-23 01:40:00,59.0,57.0,30.17,NNW,344,0.0,0.0,93,0.00,,,0.00,Wunderground v.1.15,2013-08-23 06:40:00,
2013-08-23 01:45:00,59.0,57.0,30.17,NNW,344,0.0,0.0,93,0.00,,,0.00,Wunderground v.1.15,2013-08-23 06:45:00,
2013-08-23 01:50:00,59.0,57.0,30.17,NNW,344,0.0,0.0,93,0.00,,,0.00,Wunderground v.1.15,2013-08-23 06:50:00,
2013-08-23 02:00:00,59.0,57.0,30.17,NNW,344,0.0,0.0,93,0.00,,,0.00,Wunderground v.1.15,2013-08-23 07:00:00,
2013-08-23 02:05:00,58.9,56.9,30.17,NNW,344,0.0,0.0,93,0.00,,,0.00,Wunderground v.1.15,2013-08-23 07:05:00,
2013-08-23 02:15:00,58.8,56.8,30.17,NNW,344,0.0,0.0,93,0.00,,,0.00,Wunderground v.1.15,2013-08-23 07:15:00,
2013-08-23 02:20:00,58.7,56.7,30.17,NNW,344,0.0,0.0,93,0.00,,,0.00,Wunderground v.1.15,2013-08-23 07:20:00,
2013-08-23 02:30:00,58.4,56.4,30.17,NNW,344,0.0,0.0,93,0.00,,,0.00,Wunderground v.1.15,2013-08-23 07:30:00,
2013-08-23 02:35:00,58.3,56.3,30.17,NNW,344,0.0,0.0,93,0.00,,,0.00,Wunderground v.1.15,2013-08-23 07:35:00,
2013-08-23 02:40:00,58.3,56.3,30.17,NNW,344,0.0,0.0,93,0.00,,,0.00,Wunderground v.1.15,2013-08-23 07:40:00,
2013-08-23 02:50:00,58.2,56.5,30.17,NNW,344,0.0,0.0,94,0.00,,,0.00,Wunderground v.1.15,2013-08-23 07:50:00,
2013-08-23 02:55:00,58.1,56.4,30.17,NNW,344,0.0,0.0,94,0.00,,,0.00,Wunderground v.1.15,2013-08-23 07:55:00,
2013-08-23 03:00:00,57.9,56.2,30.17,NNW,344,0.0,0.0,94,0.00,,,0.00,Wunderground v.1.15,2013-08-23 08:00:00,
2013-08-23 03:05:00,57.8,55.8,30.17,NNW,344,0.0,0.0,93,0.00,,,0.00,Wunderground v.1.15,2013-08-23 08:05:00,
2013-08-23 03:15:00,57.7,55.7,30.17,NNW,344,0.0,0.0,93,0.00,,,0.00,Wunderground v.1.15,2013-08-23 08:15:00,
2013-08-23 03:20:00,57.7,55.7,30.18,NNW,344,0.0,0.0,93,0.00,,,0.00,Wunderground v.1.15,2013-08-23 08:20:00,
2013-08-23 03:25:00,57.7,55.7,30.18,NNW,344,0.0,0.0,93,0.00,,,0.00,Wunderground v.1.15,2013-08-23 08:25:00,
2013-08-23 03:30:00,57.7,56.0,30.18,NNW,344,0.0,0.0,94,0.00,,,0.00,Wunderground v.1.15,2013-08-23 08:30:00,
2013-08-23 03:35:00,57.6,55.9,30.18,NNW,344,0.0,0.0,94,0.00,,,0.00,Wunderground v.1.15,2013-08-23 08:35:00,
2013-08-23 03:40:00,57.6,55.9,30.18,NNW,344,0.0,0.0,94,0.00,,,0.00,Wunderground v.1.15,2013-08-23 08:40:00,
2013-08-23 03:45:00,57.5,55.8,30.17,NNW,344,0.0,0.0,94,0.00,,,0.00,Wunderground v.1.15,2013-08-23 08:45:00,
2013-08-23 03:55:00,57.3,55.6,30.18,NNW,344,0.0,0.0,94,0.00,,,0.00,Wunderground v.1.15,2013-08-23 08:55:00,
2013-08-23 04:00:00,57.3,55.6,30.18,NNW,344,0.0,0.0,94,0.00,,,0.00,Wunderground v.1.15,2013-08-23 09:00:00,
2013-08-23 04:05:00,57.3,55.6,30.18,NNW,344,0.0,0.0,94,0.00,,,0.00,Wunderground v.1.15,2013-08-23 09:05:00,
2013-08-23 04:15:00,57.3,55.6,30.18,NNW,344,0.0,0.0,94,0.00,,,0.00,Wunderground v.1.15,2013-08-23 09:15:00,
2013-08-23 04:25:00,57.2,55.5,30.18,NNW,344,0.0,0.0,94,0.00,,,0.00,Wunderground v.1.15,2013-08-23 09:25:00,
2013-08-23 04:30:00,57.2,55.5,30.18,NNW,344,0.0,0.0,94,0.00,,,0.00,Wunderground v.1.15,2013-08-23 09:30:00,
2013-08-23 04:35:00,57.2,55.5,30.18,NNW,344,0.0,0.0,94,0.00,,,0.00,Wunderground v.1.15,2013-08-23 09:35:00,
2013-08-23 04:40:00,57.1,55.4,30.18,NNW,344,0.0,0.0,94,0.00,,,0.00,Wunderground v.1.15,2013-08-23 09:40:00,
2013-08-23 04:45:00,57.0,55.3,30.18,NNW,344,0.0,0.0,94,0.00,,,0.00,Wunderground v.1.15,2013-08-23 09:45:00,
2013-08-23 04:50:00,56.9,55.2,30.18,NNW,344,0.0,0.0,94,0.00,,,0.00,Wunderground v.1.15,2013-08-23 09:50:00,
2013-08-23 04:55:00,56.9,55.2,30.18,NNW,344,0.0,0.0,94,0.00,,,0.00,Wunderground v.1.15,2013-08-23 09:55:00,
2013-08-23 05:00:00,56.9,55.2,30.18,NNW,344,0.0,0.0,94,0.00,,,0.00,Wunderground v.1.15,2013-08-23 10:00:00,
2013-08-23 05:05:00,57.0,55.3,30.19,NNW,344,0.0,0.0,94,0.00,,,0.00,Wunderground v.1.15,2013-08-23 10:05:00,
2013-08-23 05:15:00,57.0,55.3,30.18,NNW,344,0.0,0.0,94,0.00,,,0.00,Wunderground v.1.15,2013-08-23 10:15:00,
2013-08-23 05:20:00,57.0,55.3,30.19,NNW,344,0.0,0.0,94,0.00,,,0.00,Wunderground v.1.15,2013-08-23 10:20:00,
2013-08-23 05:25:00,57.0,55.3,30.19,NNW,344,0.0,0.0,94,0.00,,,0.00,Wunderground v.1.15,2013-08-23 10:25:00,
2013-08-23 05:35:00,57.1,55.4,30.20,NNW,344,0.0,0.0,94,0.00,,,0.00,Wunderground v.1.15,2013-08-23 10:35:00,
2013-08-23 05:40:00,57.0,55.3,30.20,NNW,344,0.0,0.0,94,0.00,,,0.00,Wunderground v.1.15,2013-08-23 10:40:00,
2013-08-23 05:45:00,57.0,55.3,30.20,NNW,344,0.0,0.0,94,0.00,,,0.00,Wunderground v.1.15,2013-08-23 10:45:00,
2013-08-23 05:50:00,57.0,55.3,30.20,NNW,344,0.0,0.0,94,0.00,,,0.00,Wunderground v.1.15,2013-08-23 10:50:00,
2013-08-23 05:55:00,57.1,55.4,30.20,NNW,344,0.0,0.0,94,0.00,,,0.00,Wunderground v.1.15,2013-08-23 10:55:00,
2013-08-23 06:00:00,57.2,55.5,30.20,NNW,344,0.0,0.0,94,0.00,,,0.00,Wunderground v.1.15,2013-08-23 11:00:00,
2013-08-23 06:05:00,57.2,55.5,30.21,NNW,344,0.0,0.0,94,0.00,,,0.00,Wunderground v.1.15,2013-08-23 11:05:00,
2013-08-23 06:15:00,57.4,55.7,30.21,NNW,344,0.0,0.0,94,0.00,,,0.00,Wunderground v.1.15,2013-08-23 11:15:00,
2013-08-23 06:20:00,57.5,55.8,30.21,NNW,344,0.0,0.0,94,0.00,,,0.00,Wunderground v.1.15,2013-08-23 11:20:00,
2013-08-23 06:30:00,57.6,55.9,30.21,NNW,344,0.0,0.0,94,0.00,,,0.00,Wunderground v.1.15,2013-08-23 11:30:00,
2013-08-23 06:35:00,57.7,56.0,30.21,NNW,344,0.0,0.0,94,0.00,,,0.00,Wunderground v.1.15,2013-08-23 11:35:00,
2013-08-23 06:40:00,57.8,56.1,30.21,NNW,344,0.0,0.0,94,0.00,,,0.00,Wunderground v.1.15,2013-08-23 11:40:00,
2013-08-23 06:50:00,58.0,56.3,30.21,NNW,344,0.0,0.0,94,0.00,,,0.00,Wunderground v.1.15,2013-08-23 11:50:00,
2013-08-23 06:55:00,58.2,56.5,30.22,NNW,344,0.0,0.0,94,0.00,,,0.00,Wunderground v.1.15,2013-08-23 11:55:00,
2013-08-23 07:00:00,58.4,56.7,30.22,NNW,344,0.0,0.0,94,0.00,,,0.00,Wunderground v.1.15,2013-08-23 12:00:00,
2013-08-23 07:05:00,58.4,56.7,30.22,NNW,344,0.0,0.0,94,0.00,,,0.00,Wunderground v.1.15,2013-08-23 12:05:00,
2013-08-23 07:15:00,58.5,56.8,30.22,NNW,344,0.0,0.0,94,0.00,,,0.00,Wunderground v.1.15,2013-08-23 12:15:00,
2013-08-23 07:25:00,58.6,56.9,30.22,NNW,344,0.0,0.0,94,0.00,,,0.00,Wunderground v.1.15,2013-08-23 12:25:00,
2013-08-23 07:30:00,58.8,57.4,30.22,NNW,344,0.0,0.0,95,0.00,,,0.00,Wunderground v.1.15,2013-08-23 12:30:00,
2013-08-23 07:35:00,59.0,57.6,30.22,NNW,344,0.0,0.0,95,0.00,,,0.00,Wunderground v.1.15,2013-08-23 12:35:00,
2013-08-23 07:40:00,59.0,57.6,30.22,NNW,344,0.0,0.0,95,0.00,,,0.00,Wunderground v.1.15,2013-08-23 12:40:00,
2013-08-23 07:45:00,59.9,58.5,30.22,NE,36,0.0,0.0,95,0.00,,,0.00,Wunderground v.1.15,2013-08-23 12:45:00,
2013-08-23 07:50:00,60.9,59.5,30.22,NE,36,0.0,0.0,95,0.00,,,0.00,Wunderground v.1.15,2013-08-23 12:50:00,
2013-08-23 07:55:00,61.5,60.1,30.22,NE,36,0.0,0.0,95,0.00,,,0.00,Wunderground v.1.15,2013-08-23 12:55:00,
2013-08-23 08:00:00,62.0,60.6,30.22,NE,36,0.0,0.0,95,0.00,,,0.00,Wunderground v.1.15,2013-08-23 13:00:00,
2013-08-23 08:05:00,62.7,61.2,30.22,NE,36,0.0,0.0,95,0.00,,,0.00,Wunderground v.1.15,2013-08-23 13:05:00,
2013-08-23 08:15:00,63.7,62.2,30.23,NE,36,0.0,0.0,95,0.00,,,0.00,Wunderground v.1.15,2013-08-23 13:15:00,
2013-08-23 08:20:00,64.0,62.5,30.23,NE,36,0.0,0.0,95,0.00,,,0.00,Wunderground v.1.15,2013-08-23 13:20:00,
2013-08-23 08:25:00,64.2,62.7,30.23,NE,36,0.0,0.0,95,0.00,,,0.00,Wunderground v.1.15,2013-08-23 13:25:00,
2013-08-23 08:35:00,64.7,63.2,30.23,NE,36,0.0,0.0,95,0.00,,,0.00,Wunderground v.1.15,2013-08-23 13:35:00,
2013-08-23 08:40:00,65.1,63.6,30.23,NE,37,0.0,1.0,95,0.00,,,0.00,Wunderground v.1.15,2013-08-23 13:40:00,
2013-08-23 08:45:00,65.5,64.0,30.23,NE,38,0.0,1.0,95,0.00,,,0.00,Wunderground v.1.15,2013-08-23 13:45:00,
2013-08-23 08:50:00,66.2,64.7,30.23,East,98,0.0,1.0,95,0.00,,,0.00,Wunderground v.1.15,2013-08-23 13:50:00,
2013-08-23 08:55:00,66.7,64.9,30.23,East,96,0.0,1.0,94,0.00,,,0.00,Wunderground v.1.15,2013-08-23 13:55:00,
2013-08-23 09:00:00,67.1,65.0,30.23,ESE,105,0.0,0.0,93,0.00,,,0.00,Wunderground v.1.15,2013-08-23 14:00:00,
2013-08-23 09:05:00,67.8,65.1,30.23,East,95,0.0,0.0,91,0.00,,,0.00,Wunderground v.1.15,2013-08-23 14:05:00,
2013-08-23 09:15:00,68.6,64.9,30.23,ESE,105,0.0,0.0,88,0.00,,,0.00,Wunderground v.1.15,2013-08-23 14:15:00,
2013-08-23 09:20:00,68.7,64.0,30.23,SSE,157,1.0,1.0,85,0.00,,,0.00,Wunderground v.1.15,2013-08-23 14:20:00,
2013-08-23 09:25:00,68.9,63.9,30.23,ESE,107,1.0,2.0,84,0.00,,,0.00,Wunderground v.1.15,2013-08-23 14:25:00,
2013-08-23 09:35:00,69.5,63.8,30.23,SSE,168,1.0,1.0,82,0.00,,,0.00,Wunderground v.1.15,2013-08-23 14:35:00,
2013-08-23 09:40:00,69.9,64.2,30.24,South,169,0.0,2.0,82,0.00,,,0.00,Wunderground v.1.15,2013-08-23 14:40:00,
2013-08-23 09:45:00,70.3,63.8,30.24,SSE,168,0.0,2.0,80,0.00,,,0.00,Wunderground v.1.15,2013-08-23 14:45:00,
2013-08-23 09:50:00,70.8,64.0,30.23,South,171,1.0,1.0,79,0.00,,,0.00,Wunderground v.1.15,2013-08-23 14:50:00,
2013-08-23 09:55:00,71.3,64.8,30.24,SE,137,1.0,1.0,80,0.00,,,0.00,Wunderground v.1.15,2013-08-23 14:55:00,
2013-08-23 10:00:00,71.3,63.7,30.23,South,175,1.0,1.0,77,0.00,,,0.00,Wunderground v.1.15,2013-08-23 15:00:00,
2013-08-23 10:05:00,71.6,64.4,30.23,East,99,1.0,1.0,78,0.00,,,0.00,Wunderground v.1.15,2013-08-23 15:05:00,
2013-08-23 10:15:00,72.1,64.9,30.24,SSE,150,0.0,4.0,78,0.00,,,0.00,Wunderground v.1.15,2013-08-23 15:15:00,
2013-08-23 10:20:00,72.2,64.6,30.24,SSE,167,1.0,1.0,77,0.00,,,0.00,Wunderground v.1.15,2013-08-23 15:20:00,
2013-08-23 10:30:00,72.9,64.9,30.24,SSE,150,1.0,1.0,76,0.00,,,0.00,Wunderground v.1.15,2013-08-23 15:30:00,
2013-08-23 10:35:00,73.1,64.7,30.24,South,181,1.0,1.0,75,0.00,,,0.00,Wunderground v.1.15,2013-08-23 15:35:00,
2013-08-23 10:40:00,73.5,65.1,30.24,South,188,1.0,1.0,75,0.00,,,0.00,Wunderground v.1.15,2013-08-23 15:40:00,
2013-08-23 10:50:00,74.4,64.4,30.24,South,183,1.0,2.0,71,0.00,,,0.00,Wunderground v.1.15,2013-08-23 15:50:00,
2013-08-23 10:55:00,74.8,63.9,30.24,South,175,1.0,7.0,69,0.00,,,0.00,Wunderground v.1.15,2013-08-23 15:55:00,
2013-08-23 11:00:00,75.2,63.9,30.24,South,171,2.0,6.0,68,0.00,,,0.00,Wunderground v.1.15,2013-08-23 16:00:00,
2013-08-23 11:05:00,75.9,63.7,30.24,South,172,2.0,6.0,66,0.00,,,0.00,Wunderground v.1.15,2013-08-23 16:05:00,
2013-08-23 11:15:00,76.9,63.8,30.23,South,179,1.0,1.0,64,0.00,,,0.00,Wunderground v.1.15,2013-08-23 16:15:00,
2013-08-23 11:25:00,77.8,62.8,30.23,East,94,1.0,1.0,60,0.00,,,0.00,Wunderground v.1.15,2013-08-23 16:25:00,
2013-08-23 11:30:00,78.3,62.8,30.23,SSE,157,1.0,1.0,59,0.00,,,0.00,Wunderground v.1.15,2013-08-23 16:30:00,
2013-08-23 11:35:00,78.7,64.1,30.23,SSE,163,1.0,1.0,61,0.00,,,0.00,Wunderground v.1.15,2013-08-23 16:35:00,
2013-08-23 11:40:00,79.2,63.6,30.23,ESE,112,1.0,4.0,59,0.00,,,0.00,Wunderground v.1.15,2013-08-23 16:40:00,
2013-08-23 11:45:00,79.6,63.5,30.23,ESE,119,1.0,4.0,58,0.00,,,0.00,Wunderground v.1.15,2013-08-23 16:45:00,
2013-08-23 11:50:00,79.9,62.3,30.23,South,184,1.0,2.0,55,0.00,,,0.00,Wunderground v.1.15,2013-08-23 16:50:00,
2013-08-23 11:55:00,80.2,63.1,30.22,SE,131,1.0,2.0,56,0.00,,,0.00,Wunderground v.1.15,2013-08-23 16:55:00,
2013-08-23 12:00:00,80.2,63.1,30.23,SE,144,1.0,1.0,56,0.00,,,0.00,Wunderground v.1.15,2013-08-23 17:00:00,
2013-08-23 12:05:00,80.8,62.6,30.23,ENE,78,1.0,3.0,54,0.00,,,0.00,Wunderground v.1.15,2013-08-23 17:05:00,
2013-08-23 12:15:00,82.7,63.8,30.22,SSE,157,1.0,1.0,53,0.00,,,0.00,Wunderground v.1.15,2013-08-23 17:15:00,
2013-08-23 12:25:00,81.9,61.4,30.22,ESE,103,2.0,2.0,50,0.00,,,0.00,Wunderground v.1.15,2013-08-23 17:25:00,
2013-08-23 12:30:00,82.0,62.6,30.22,South,178,1.0,8.0,52,0.00,,,0.00,Wunderground v.1.15,2013-08-23 17:30:00,
2013-08-23 12:35:00,82.3,62.4,30.22,South,180,1.0,8.0,51,0.00,,,0.00,Wunderground v.1.15,2013-08-23 17:35:00,
2013-08-23 12:40:00,82.6,62.6,30.22,South,180,1.0,1.0,51,0.00,,,0.00,Wunderground v.1.15,2013-08-23 17:40:00,
2013-08-23 12:45:00,83.5,64.0,30.21,SSE,150,1.0,1.0,52,0.00,,,0.00,Wunderground v.1.15,2013-08-23 17:45:00,
2013-08-23 12:50:00,83.7,62.5,30.21,SE,130,1.0,1.0,49,0.00,,,0.00,Wunderground v.1.15,2013-08-23 17:50:00,
2013-08-23 12:55:00,84.1,62.9,30.21,South,187,1.0,7.0,49,0.00,,,0.00,Wunderground v.1.15,2013-08-23 17:55:00,
2013-08-23 13:05:00,84.1,62.9,30.21,South,171,1.0,1.0,49,0.00,,,0.00,Wunderground v.1.15,2013-08-23 18:05:00,
2013-08-23 13:15:00,84.5,63.2,30.21,SE,138,1.0,1.0,49,0.00,,,0.00,Wunderground v.1.15,2013-08-23 18:15:00,
2013-08-23 13:20:00,85.4,62.9,30.21,East,88,1.0,1.0,47,0.00,,,0.00,Wunderground v.1.15,2013-08-23 18:20:00,
2013-08-23 13:25:00,84.3,63.6,30.21,South,171,1.0,6.0,50,0.00,,,0.00,Wunderground v.1.15,2013-08-23 18:25:00,
2013-08-23 13:35:00,84.1,64.6,30.20,ESE,102,1.0,4.0,52,0.00,,,0.00,Wunderground v.1.15,2013-08-23 18:35:00,
2013-08-23 13:40:00,84.4,63.2,30.20,ESE,102,1.0,1.0,49,0.00,,,0.00,Wunderground v.1.15,2013-08-23 18:40:00,
2013-08-23 13:50:00,84.3,63.6,30.20,South,176,2.0,2.0,50,0.00,,,0.00,Wunderground v.1.15,2013-08-23 18:50:00,
2013-08-23 13:55:00,84.2,64.1,30.20,ESE,108,1.0,2.0,51,0.00,,,0.00,Wunderground v.1.15,2013-08-23 18:55:00,
2013-08-23 14:00:00,84.4,64.3,30.20,South,175,1.0,2.0,51,0.00,,,0.00,Wunderground v.1.15,2013-08-23 19:00:00,
2013-08-23 14:05:00,84.0,63.4,30.20,SE,136,1.0,2.0,50,0.00,,,0.00,Wunderground v.1.15,2013-08-23 19:05:00,
2013-08-23 14:15:00,84.3,64.2,30.20,ESE,122,1.0,3.0,51,0.00,,,0.00,Wunderground v.1.15,2013-08-23 19:15:00,
2013-08-23 14:20:00,84.9,63.6,30.20,SSE,160,1.0,1.0,49,0.00,,,0.00,Wunderground v.1.15,2013-08-23 19:20:00,
2013-08-23 14:30:00,85.7,64.3,30.20,East,101,1.0,1.0,49,0.00,,,0.00,Wunderground v.1.15,2013-08-23 19:30:00,
2013-08-23 14:40:00,85.2,63.9,30.19,ESE,104,1.0,7.0,49,0.00,,,0.00,Wunderground v.1.15,2013-08-23 19:40:00,
2013-08-23 14:50:00,85.2,63.9,30.19,South,176,1.0,1.0,49,0.00,,,0.00,Wunderground v.1.15,2013-08-23 19:50:00,
2013-08-23 15:00:00,84.5,62.1,30.19,East,84,1.0,1.0,47,0.00,,,0.00,Wunderground v.1.15,2013-08-23 20:00:00,
2013-08-23 15:05:00,84.1,62.9,30.18,SE,137,1.0,1.0,49,0.00,,,0.00,Wunderground v.1.15,2013-08-23 20:05:00,
2013-08-23 15:15:00,84.6,62.7,30.19,ESE,114,1.0,1.0,48,0.00,,,0.00,Wunderground v.1.15,2013-08-23 20:15:00,
2013-08-23 15:20:00,84.7,63.4,30.18,SSE,163,1.0,6.0,49,0.00,,,0.00,Wunderground v.1.15,2013-08-23 20:20:00,
2013-08-23 15:30:00,84.7,62.8,30.18,ESE,115,1.0,2.0,48,0.00,,,0.00,Wunderground v.1.15,2013-08-23 20:30:00,
2013-08-23 15:35:00,84.6,63.3,30.18,SE,137,1.0,2.0,49,0.00,,,0.00,Wunderground v.1.15,2013-08-23 20:35:00,
2013-08-23 15:40:00,84.5,62.1,30.18,SSE,168,1.0,2.0,47,0.00,,,0.00,Wunderground v.1.15,2013-08-23 20:40:00,
2013-08-23 15:45:00,83.9,62.1,30.18,East,94,1.0,2.0,48,0.00,,,0.00,Wunderground v.1.15,2013-08-23 20:45:00,
2013-08-23 15:50:00,83.4,62.8,30.18,ESE,109,1.0,1.0,50,0.00,,,0.00,Wunderground v.1.15,2013-08-23 20:50:00,
2013-08-23 15:55:00,82.9,61.8,30.18,SSE,161,1.0,1.0,49,0.00,,,0.00,Wunderground v.1.15,2013-08-23 20:55:00,
2013-08-23 16:00:00,82.5,62.5,30.18,SSE,161,1.0,1.0,51,0.00,,,0.00,Wunderground v.1.15,2013-08-23 21:00:00,
2013-08-23 16:10:00,81.6,61.2,30.18,East,96,1.0,4.0,50,0.00,,,0.00,Wunderground v.1.15,2013-08-23 21:10:00,
2013-08-23 16:15:00,81.5,61.1,30.18,SE,139,1.0,4.0,50,0.00,,,0.00,Wunderground v.1.15,2013-08-23 21:15:00,
2013-08-23 16:25:00,81.5,61.6,30.18,SE,132,1.0,1.0,51,0.00,,,0.00,Wunderground v.1.15,2013-08-23 21:25:00,
2013-08-23 16:30:00,81.3,62.0,30.18,SSE,160,1.0,1.0,52,0.00,,,0.00,Wunderground v.1.15,2013-08-23 21:30:00,
2013-08-23 16:35:00,81.4,62.1,30.17,SSE,167,1.0,1.0,52,0.00,,,0.00,Wunderground v.1.15,2013-08-23 21:35:00,
2013-08-23 16:40:00,81.7,62.9,30.17,East,97,1.0,1.0,53,0.00,,,0.00,Wunderground v.1.15,2013-08-23 21:40:00,
2013-08-23 16:45:00,81.7,61.8,30.17,South,171,1.0,1.0,51,0.00,,,0.00,Wunderground v.1.15,2013-08-23 21:45:00,
2013-08-23 16:55:00,81.7,61.8,30.18,ESE,105,1.0,1.0,51,0.00,,,0.00,Wunderground v.1.15,2013-08-23 21:55:00,
2013-08-23 17:05:00,81.6,61.7,30.17,SSE,159,1.0,1.0,51,0.00,,,0.00,Wunderground v.1.15,2013-08-23 22:05:00,
2013-08-23 17:15:00,81.7,62.4,30.17,SSE,160,0.0,1.0,52,0.00,,,0.00,Wunderground v.1.15,2013-08-23 22:15:00,
2013-08-23 17:25:00,81.9,62.5,30.17,East,98,0.0,1.0,52,0.00,,,0.00,Wunderground v.1.15,2013-08-23 22:25:00,
2013-08-23 17:30:00,82.0,62.6,30.17,East,88,1.0,1.0,52,0.00,,,0.00,Wunderground v.1.15,2013-08-23 22:30:00,
2013-08-23 17:35:00,82.0,61.5,30.17,East,89,1.0,1.0,50,0.00,,,0.00,Wunderground v.1.15,2013-08-23 22:35:00,
2013-08-23 17:40:00,81.7,61.8,30.17,SSE,153,1.0,1.0,51,0.00,,,0.00,Wunderground v.1.15,2013-08-23 22:40:00,
2013-08-23 17:50:00,81.1,61.3,30.17,ESE,102,1.0,1.0,51,0.00,,,0.00,Wunderground v.1.15,2013-08-23 22:50:00,
2013-08-23 17:55:00,80.8,61.0,30.17,SSE,148,1.0,1.0,51,0.00,,,0.00,Wunderground v.1.15,2013-08-23 22:55:00,
2013-08-23 18:00:00,80.7,62.0,30.18,ESE,102,1.0,1.0,53,0.00,,,0.00,Wunderground v.1.15,2013-08-23 23:00:00,
2013-08-23 18:05:00,80.6,61.9,30.18,ESE,103,0.0,1.0,53,0.00,,,0.00,Wunderground v.1.15,2013-08-23 23:05:00,
2013-08-23 18:15:00,80.2,61.0,30.17,SE,142,0.0,4.0,52,0.00,,,0.00,Wunderground v.1.15,2013-08-23 23:15:00,
2013-08-23 18:20:00,79.8,61.7,30.17,ESE,109,0.0,0.0,54,0.00,,,0.00,Wunderground v.1.15,2013-08-23 23:20:00,
2013-08-23 18:25:00,79.3,61.2,30.17,ESE,109,0.0,0.0,54,0.00,,,0.00,Wunderground v.1.15,2013-08-23 23:25:00,
2013-08-23 18:35:00,78.4,60.9,30.17,ESE,110,0.0,0.0,55,0.00,,,0.00,Wunderground v.1.15,2013-08-23 23:35:00,
2013-08-23 18:45:00,77.8,61.3,30.17,ESE,111,0.0,0.0,57,0.00,,,0.00,Wunderground v.1.15,2013-08-23 23:45:00,
2013-08-23 18:50:00,77.4,61.9,30.17,ESE,110,0.0,0.0,59,0.00,,,0.00,Wunderground v.1.15,2013-08-23 23:50:00,
2013-08-23 18:55:00,76.9,61.5,30.17,ESE,111,0.0,0.0,59,0.00,,,0.00,Wunderground v.1.15,2013-08-23 23:55:00,
2013-08-23 19:00:00,76.6,61.7,30.17,ESE,110,0.0,0.0,60,0.00,,,0.00,Wunderground v.1.15,2013-08-24 00:00:00,
2013-08-23 19:05:00,76.1,61.7,30.17,ESE,111,0.0,0.0,61,0.00,,,0.00,Wunderground v.1.15,2013-08-24 00:05:00,
2013-08-23 19:15:00,75.1,62.5,30.17,ESE,111,0.0,0.0,65,0.00,,,0.00,Wunderground v.1.15,2013-08-24 00:15:00,
2013-08-23 19:20:00,74.6,62.5,30.17,ESE,111,0.0,0.0,66,0.00,,,0.00,Wunderground v.1.15,2013-08-24 00:20:00,
2013-08-23 19:25:00,73.8,62.2,30.17,ESE,111,0.0,0.0,67,0.00,,,0.00,Wunderground v.1.15,2013-08-24 00:25:00,
2013-08-23 19:35:00,72.5,61.7,30.17,ESE,111,0.0,0.0,69,0.00,,,0.00,Wunderground v.1.15,2013-08-24 00:35:00,
2013-08-23 19:40:00,71.9,61.6,30.17,ESE,111,0.0,0.0,70,0.00,,,0.00,Wunderground v.1.15,2013-08-24 00:40:00,
2013-08-23 19:45:00,71.4,61.9,30.17,ESE,111,0.0,0.0,72,0.00,,,0.00,Wunderground v.1.15,2013-08-24 00:45:00,
2013-08-23 19:50:00,70.8,61.7,30.17,ESE,111,0.0,0.0,73,0.00,,,0.00,Wunderground v.1.15,2013-08-24 00:50:00,
2013-08-23 19:55:00,70.2,61.5,30.17,ESE,111,0.0,0.0,74,0.00,,,0.00,Wunderground v.1.15,2013-08-24 00:55:00,
2013-08-23 20:00:00,69.7,61.4,30.17,ESE,111,0.0,0.0,75,0.00,,,0.00,Wunderground v.1.15,2013-08-24 01:00:00,
2013-08-23 20:05:00,69.2,61.3,30.17,ESE,111,0.0,0.0,76,0.00,,,0.00,Wunderground v.1.15,2013-08-24 01:05:00,
2013-08-23 20:15:00,68.3,60.8,30.18,ESE,110,0.0,0.0,77,0.00,,,0.00,Wunderground v.1.15,2013-08-24 01:15:00,
2013-08-23 20:20:00,68.0,60.9,30.18,ESE,111,0.0,0.0,78,0.00,,,0.00,Wunderground v.1.15,2013-08-24 01:20:00,
2013-08-23 20:25:00,67.5,60.8,30.18,ESE,110,0.0,0.0,79,0.00,,,0.00,Wunderground v.1.15,2013-08-24 01:25:00,
2013-08-23 20:35:00,66.9,60.2,30.18,ESE,110,0.0,0.0,79,0.00,,,0.00,Wunderground v.1.15,2013-08-24 01:35:00,
2013-08-23 20:40:00,66.7,60.3,30.19,ESE,111,0.0,0.0,80,0.00,,,0.00,Wunderground v.1.15,2013-08-24 01:40:00,
2013-08-23 20:45:00,66.4,60.0,30.19,ESE,110,0.0,0.0,80,0.00,,,0.00,Wunderground v.1.15,2013-08-24 01:45:00,
2013-08-23 20:50:00,66.1,59.7,30.19,ESE,111,0.0,0.0,80,0.00,,,0.00,Wunderground v.1.15,2013-08-24 01:50:00,
2013-08-23 21:00:00,65.5,59.5,30.19,ESE,111,0.0,0.0,81,0.00,,,0.00,Wunderground v.1.15,2013-08-24 02:00:00,
2013-08-23 21:05:00,65.3,59.7,30.20,ESE,111,0.0,0.0,82,0.00,,,0.00,Wunderground v.1.15,2013-08-24 02:05:00,
2013-08-23 21:15:00,64.8,59.2,30.21,ESE,110,0.0,0.0,82,0.00,,,0.00,Wunderground v.1.15,2013-08-24 02:15:00,
2013-08-23 21:20:00,64.5,58.9,30.20,ESE,111,0.0,0.0,82,0.00,,,0.00,Wunderground v.1.15,2013-08-24 02:20:00,
2013-08-23 21:25:00,64.2,58.6,30.21,ESE,111,0.0,0.0,82,0.00,,,0.00,Wunderground v.1.15,2013-08-24 02:25:00,
2013-08-23 21:30:00,64.0,58.4,30.21,ESE,111,0.0,0.0,82,0.00,,,0.00,Wunderground v.1.15,2013-08-24 02:30:00,
2013-08-23 21:40:00,63.7,58.4,30.21,ESE,111,0.0,0.0,83,0.00,,,0.00,Wunderground v.1.15,2013-08-24 02:40:00,
2013-08-23 21:45:00,63.6,58.3,30.21,ESE,110,0.0,0.0,83,0.00,,,0.00,Wunderground v.1.15,2013-08-24 02:45:00,
2013-08-23 21:50:00,63.5,58.2,30.21,ESE,111,0.0,0.0,83,0.00,,,0.00,Wunderground v.1.15,2013-08-24 02:50:00,
2013-08-23 21:55:00,63.4,58.1,30.20,ESE,110,0.0,0.0,83,0.00,,,0.00,Wunderground v.1.15,2013-08-24 02:55:00,
2013-08-23 22:00:00,63.5,57.9,30.21,ESE,111,0.0,0.0,82,0.00,,,0.00,Wunderground v.1.15,2013-08-24 03:00:00,
2013-08-23 22:05:00,63.6,57.3,30.21,ESE,110,0.0,0.0,80,0.00,,,0.00,Wunderground v.1.15,2013-08-24 03:05:00,
2013-08-23 22:15:00,64.2,57.2,30.20,ESE,110,0.0,0.0,78,0.00,,,0.00,Wunderground v.1.15,2013-08-24 03:15:00,
2013-08-23 22:20:00,64.3,57.3,30.21,ESE,110,0.0,0.0,78,0.00,,,0.00,Wunderground v.1.15,2013-08-24 03:20:00,
2013-08-23 22:25:00,64.4,57.0,30.21,ESE,110,0.0,0.0,77,0.00,,,0.00,Wunderground v.1.15,2013-08-24 03:25:00,
2013-08-23 22:35:00,64.4,56.7,30.21,ESE,111,0.0,0.0,76,0.00,,,0.00,Wunderground v.1.15,2013-08-24 03:35:00,
2013-08-23 22:40:00,64.5,56.4,30.21,ESE,111,0.0,0.0,75,0.00,,,0.00,Wunderground v.1.15,2013-08-24 03:40:00,
2013-08-23 22:50:00,64.3,56.2,30.21,ESE,111,0.0,0.0,75,0.00,,,0.00,Wunderground v.1.15,2013-08-24 03:50:00,
2013-08-23 22:55:00,64.2,56.5,30.21,ESE,110,0.0,0.0,76,0.00,,,0.00,Wunderground v.1.15,2013-08-24 03:55:00,
2013-08-23 23:00:00,63.9,56.2,30.21,ESE,110,0.0,0.0,76,0.00,,,0.00,Wunderground v.1.15,2013-08-24 04:00:00,
2013-08-23 23:05:00,63.8,56.1,30.21,ESE,111,0.0,0.0,76,0.00,,,0.00,Wunderground v.1.15,2013-08-24 04:05:00,
2013-08-23 23:10:00,63.6,55.9,30.21,ESE,111,0.0,0.0,76,0.00,,,0.00,Wunderground v.1.15,2013-08-24 04:10:00,
2013-08-23 23:15:00,63.5,55.8,30.21,ESE,110,0.0,0.0,76,0.00,,,0.00,Wunderground v.1.15,2013-08-24 04:15:00,
2013-08-23 23:20:00,63.4,55.7,30.21,ESE,110,0.0,0.0,76,0.00,,,0.00,Wunderground v.1.15,2013-08-24 04:20:00,
2013-08-23 23:30:00,63.0,55.7,30.21,ESE,110,0.0,1.0,77,0.00,,,0.00,Wunderground v.1.15,2013-08-24 04:30:00,
2013-08-23 23:35:00,62.9,55.6,30.21,ESE,111,0.0,1.0,77,0.00,,,0.00,Wunderground v.1.15,2013-08-24 04:35:00,
2013-08-23 23:45:00,62.5,55.2,30.21,ESE,110,0.0,2.0,77,0.00,,,0.00,Wunderground v.1.15,2013-08-24 04:45:00,
2013-08-23 23:50:00,62.2,55.3,30.21,ESE,111,0.0,0.0,78,0.00,,,0.00,Wunderground v.1.15,2013-08-24 04:50:00,
2013-08-23 23:55:00,62.0,55.1,30.21,ESE,111,0.0,0.0,78,0.00,,,0.00,Wunderground v.1.15,2013-08-24 04:55:00,